Startpagina
METAR-TAF:

METAR-TAF

Vliegvelden :

Oslo, Noorwegen

Luchthaven Oslo Gardermoen

breedte: 60-12N, lengte: 011-05E, hoogte: 208 m

Actueel weer

Dit bericht is 26 minuten geleden gemaakt, om 20:50 UTC
Wind 3 kt uit het zuiden
Temperatuur -1°C
Vochtigheid 93%
Druk 979 hPa
Zicht 10 km of meer
Weinig wolken op 700 ft
Gebroken wolken op 900 ft

METAR: ENGM 162050Z 18003KT 9999 FEW007 BKN009 M01/M02 Q0979 TEMPO BKN004

Tijdstip: 22:16 (21:16 UTC)

Verwachting

Verwachting geldig van 16 om 18 UTC tot 17 om 18 UTC
Wind 5 kt uit variabele richting
Zicht: 9000 m
Gebroken wolken op 1500 ft
lichte sneeuw
Tijdelijke
van 16 om 18 UTC tot 16 om 20 UTC
Zicht: 2000 m
Geheel bewolkt op 200 ft
nevel
Kans 40%
van 16 om 20 UTC tot 17 om 08 UTC
Zicht: 0300 m
op 100 ft
onderkoelde mist
Tijdelijke
van 17 om 08 UTC tot 17 om 18 UTC
Gebroken wolken op 600 ft

TAF: ENGM 1618/1718 VRB05KT 9000 -SN BKN015 TEMPO 1618/1620 2000 BR OVC002 PROB40 1620/1708 0300 FZFG VV001 TEMPO 1708/1718 BKN006

Waarnemingen en weersverwachtingen van meer dan 4000 vliegvelden (METAR en TAF).

De beschikbare stations zijn de gele en rode punten op de kaart.

Ga met uw muis naar het station om de naam te zien.

Klik dan om waarnemingen en weersverwachtingen te zien.

kaart wijzigen: klik op de groene knoppen met een zwart kruis om in te zoomen, op de groene knop met een streepje om uit te zoomen of op de groene pijlen voor aangrenzende kaarten.


METAR-TAF: